Pardeeville, Wisconsin
Current Conditions -  °F | °C
As of 6:55 AM on Thursday 23 Oct 2014 (Local Time) from KDLL Reporting Station
Overcast Overcast  
Wind Chill: 40°   Ceiling: 5000
Heat Index: 44°   Visibility: 10mi
Dew Point: 34°   Wind: 7mph
Humidity: 70%   Direction: 190°S
Pressure: 30.13"   Gusts: NA
Location:  43.54°N, 89.3°W
Report Text: KDLL 231155Z AUTO 19006KT 10SM OVC050 07/01 A3013 RMK AO2 T00650013 10065 20046
Loading
Personal Weather Stations






























Interactive Weather Map
Tropical Storm Tracking
New forecast layout! Learn more

10-Day Weather Forecast

Advertisements
Track Severe Weather on mobile